Time;durP1;ratioP1;P1;durP2;ratioP2;P2;SDS_P1;SDS_P2;PMS_P1;PMS_P2;Temp;Humidity;BMP_temperature;BMP_pressure;BME280_temperature;BME280_humidity;BME280_pressure;Samples;Min_cycle;Max_cycle;Signal;HPM_P1;HPM_P2
2021/07/12 00:03:35;;;;;;;7.10;5.47;;;;;15.40;100819.00;;;;10464784;28;20217;-76
2021/07/12 00:08:37;;;;;;;6.87;6.13;;;;;15.30;100824.00;;;;10481170;28;20193;-77
2021/07/12 00:13:39;;;;;;;5.57;5.13;;;;;15.20;100821.00;;;;10447396;28;20182;-76
2021/07/12 00:18:41;;;;;;;8.40;6.23;;;;;15.20;100805.00;;;;10463911;28;20959;-76
2021/07/12 00:23:43;;;;;;;6.73;6.13;;;;;15.20;100811.00;;;;10464147;28;20217;-76
2021/07/12 00:28:45;;;;;;;6.27;5.50;;;;;15.20;100802.00;;;;10446905;28;20613;-76
2021/07/12 00:33:48;;;;;;;9.20;5.80;;;;;15.20;100795.00;;;;10480271;28;20237;-76
2021/07/12 00:38:50;;;;;;;7.47;5.93;;;;;15.20;100803.00;;;;10447443;28;20215;-77
2021/07/12 00:43:53;;;;;;;7.90;6.93;;;;;15.30;100795.00;;;;10462702;28;20205;-76
2021/07/12 00:48:55;;;;;;;7.13;6.40;;;;;15.30;100795.00;;;;10463397;28;20197;-76
2021/07/12 00:53:57;;;;;;;8.27;6.53;;;;;15.30;100797.00;;;;10512973;28;20693;-76
2021/07/12 00:59:05;;;;;;;8.30;6.57;;;;;15.30;100791.00;;;;10503927;28;20740;-76
2021/07/12 01:04:08;;;;;;;6.57;5.90;;;;;15.30;100798.00;;;;10521154;28;20258;-75
2021/07/12 01:09:12;;;;;;;7.67;6.30;;;;;15.20;100794.00;;;;10488036;28;20613;-75
2021/07/12 01:14:56;;;;;;;8.70;5.87;;;;;15.20;100793.00;;;;10520318;28;20216;-75
2021/07/12 01:20:58;;;;;;;6.37;5.77;;;;;15.20;100785.00;;;;10509953;28;20205;-75
2021/07/12 01:26:15;;;;;;;5.70;5.20;;;;;15.30;100779.00;;;;10503393;28;20197;-75
2021/07/12 01:32:02;;;;;;;7.57;5.50;;;;;15.20;100770.00;;;;10503701;28;20923;-75
2021/07/12 01:37:16;;;;;;;8.43;6.40;;;;;15.30;100766.00;;;;10440354;28;20201;-75
2021/07/12 01:42:24;;;;;;;8.50;6.37;;;;;15.30;100770.00;;;;10451250;28;20217;-75
2021/07/12 01:47:45;;;;;;;10.93;7.00;;;;;15.30;100771.00;;;;10485798;28;20235;-75
2021/07/12 01:53:03;;;;;;;11.30;7.40;;;;;15.40;100767.00;;;;10475114;28;20204;-75
2021/07/12 01:58:14;;;;;;;8.73;6.70;;;;;15.50;100755.00;;;;10527004;28;20654;-75
2021/07/12 02:03:22;;;;;;;10.10;7.30;;;;;15.50;100742.00;;;;10510643;28;20213;-75
2021/07/12 02:08:26;;;;;;;9.33;7.10;;;;;15.50;100745.00;;;;10493603;28;20192;-75
2021/07/12 02:13:37;;;;;;;8.03;6.17;;;;;15.40;100741.00;;;;10493464;28;20287;-75
2021/07/12 02:18:49;;;;;;;11.33;6.47;;;;;15.40;100747.00;;;;10494310;28;20192;-75
2021/07/12 02:24:06;;;;;;;9.03;6.37;;;;;15.40;100743.00;;;;10509233;28;20702;-75
2021/07/12 02:29:12;;;;;;;7.10;5.97;;;;;15.30;100748.00;;;;10509552;28;20213;-75
2021/07/12 02:34:14;;;;;;;7.07;6.10;;;;;15.30;100740.00;;;;10492541;28;20208;-75
2021/07/12 02:39:18;;;;;;;8.60;6.17;;;;;15.40;100727.00;;;;10509176;28;20189;-75
2021/07/12 02:44:22;;;;;;;9.93;5.87;;;;;15.40;100724.00;;;;10525015;28;20208;-75
2021/07/12 02:49:24;;;;;;;8.53;6.63;;;;;15.40;100721.00;;;;10525508;28;20200;-75
2021/07/12 02:54:35;;;;;;;8.27;5.80;;;;;15.40;100721.00;;;;10508172;28;20189;-75
2021/07/12 02:59:43;;;;;;;7.07;5.80;;;;;15.30;100723.00;;;;10458379;28;20312;-75
2021/07/12 03:04:47;;;;;;;8.77;6.63;;;;;15.30;100707.00;;;;10465828;28;20566;-75
2021/07/12 03:09:53;;;;;;;7.10;6.40;;;;;15.30;100692.00;;;;10465726;28;20565;-75
2021/07/12 03:15:10;;;;;;;7.97;7.20;;;;;15.30;100683.00;;;;10465225;28;20257;-75
2021/07/12 03:20:13;;;;;;;7.27;6.57;;;;;15.30;100687.00;;;;10448862;28;20288;-75
2021/07/12 03:25:22;;;;;;;12.50;6.97;;;;;15.30;100694.00;;;;10449721;28;20217;-75
2021/07/12 03:30:28;;;;;;;10.87;6.40;;;;;15.40;100689.00;;;;10499525;28;20185;-75
2021/07/12 03:35:40;;;;;;;9.53;6.80;;;;;15.40;100687.00;;;;10465159;28;20389;-75
2021/07/12 03:40:44;;;;;;;10.80;7.27;;;;;15.40;100701.00;;;;10448404;28;20255;-75
2021/07/12 03:46:12;;;;;;;7.67;6.70;;;;;15.40;100664.00;;;;10464969;28;20216;-75
2021/07/12 03:51:21;;;;;;;8.10;7.17;;;;;15.30;100659.00;;;;10413182;28;20341;-75
2021/07/12 03:56:27;;;;;;;11.20;7.60;;;;;15.20;100671.00;;;;10418372;28;20206;-75
2021/07/12 04:01:29;;;;;;;7.90;7.07;;;;;15.20;100656.00;;;;10439211;28;20213;-75
2021/07/12 04:06:31;;;;;;;10.47;8.67;;;;;15.10;100649.00;;;;10422863;28;20234;-75
2021/07/12 04:11:34;;;;;;;8.73;7.83;;;;;15.10;100656.00;;;;10438938;28;20546;-75
2021/07/12 04:16:36;;;;;;;9.67;8.67;;;;;15.10;100662.00;;;;10422083;28;20621;-75
2021/07/12 04:21:38;;;;;;;10.43;9.03;;;;;15.20;100671.00;;;;10421936;28;20550;-75
2021/07/12 04:26:40;;;;;;;10.93;9.80;;;;;15.30;100682.00;;;;10405715;28;20186;-75
2021/07/12 04:31:42;;;;;;;15.47;12.40;;;;;15.40;100680.00;;;;10421454;28;20185;-75
2021/07/12 04:36:44;;;;;;;11.00;10.00;;;;;15.60;100693.00;;;;10405109;28;20244;-75
2021/07/12 04:41:48;;;;;;;12.20;10.87;;;;;15.70;100673.00;;;;10437529;28;20346;-75
2021/07/12 04:46:50;;;;;;;12.33;10.30;;;;;15.90;100665.00;;;;10421390;28;20657;-75
2021/07/12 04:51:53;;;;;;;14.43;9.67;;;;;16.10;100659.00;;;;10421499;28;20186;-75
2021/07/12 04:56:56;;;;;;;12.33;9.70;;;;;16.30;100653.00;;;;10436118;28;20202;-75
2021/07/12 05:01:57;;;;;;;11.57;10.00;;;;;16.60;100651.00;;;;10421525;28;20210;-75
2021/07/12 05:07:00;;;;;;;11.30;9.40;;;;;16.80;100634.00;;;;10437426;28;20645;-75
2021/07/12 05:12:08;;;;;;;10.43;8.73;;;;;17.10;100634.00;;;;10437475;28;20182;-76
2021/07/12 05:17:12;;;;;;;9.73;8.07;;;;;17.60;100639.00;;;;10426871;28;20186;-75
2021/07/12 05:22:13;;;;;;;12.18;8.57;;;;;17.90;100636.00;;;;10413572;28;20206;-75
2021/07/12 05:27:16;;;;;;;8.80;7.80;;;;;18.10;100632.00;;;;10471863;28;20309;-75
2021/07/12 05:32:18;;;;;;;13.80;7.70;;;;;18.40;100638.00;;;;10428532;28;20581;-76
2021/07/12 05:37:20;;;;;;;8.90;6.85;;;;;18.50;100635.00;;;;10444870;28;20205;-75
2021/07/12 05:42:24;;;;;;;7.57;6.25;;;;;18.90;100629.00;;;;10479899;28;20260;-75
2021/07/12 05:47:26;;;;;;;10.80;6.10;;;;;19.20;100635.00;;;;10428835;28;20202;-75
2021/07/12 05:52:31;;;;;;;5.78;5.28;;;;;19.40;100647.00;;;;10451638;28;20226;-75
2021/07/12 05:57:33;;;;;;;5.80;4.82;;;;;19.40;100638.00;;;;10444383;28;20326;-76
2021/07/12 06:02:36;;;;;;;5.50;4.50;;;;;19.70;100661.00;;;;10427366;28;20211;-75
2021/07/12 06:07:39;;;;;;;5.07;3.60;;;;;20.50;100664.00;;;;10410673;28;20190;-76
2021/07/12 06:12:41;;;;;;;7.13;3.42;;;;;21.40;100658.00;;;;10429006;28;20667;-76
2021/07/12 06:17:44;;;;;;;3.47;2.83;;;;;22.50;100655.00;;;;10456559;28;20197;-75
2021/07/12 06:22:48;;;;;;;5.68;3.33;;;;;22.80;100656.00;;;;10462106;28;20210;-76
2021/07/12 06:27:50;;;;;;;5.88;2.63;;;;;22.60;100654.00;;;;10442169;28;20248;-75
2021/07/12 06:32:52;;;;;;;4.25;2.30;;;;;23.20;100651.00;;;;10410048;28;20543;-76
2021/07/12 06:37:54;;;;;;;3.45;2.58;;;;;24.10;100639.00;;;;10447704;28;20530;-75
2021/07/12 06:42:56;;;;;;;2.30;2.10;;;;;24.70;100637.00;;;;10460595;28;20577;-75
2021/07/12 06:47:58;;;;;;;5.75;2.60;;;;;25.60;100634.00;;;;10458357;28;20634;-76
2021/07/12 06:53:01;;;;;;;4.65;1.90;;;;;26.00;100635.00;;;;10443348;28;20189;-76
2021/07/12 06:58:04;;;;;;;2.78;2.15;;;;;26.30;100627.00;;;;10508012;28;20201;-76
2021/07/12 07:03:08;;;;;;;3.67;2.00;;;;;25.40;100625.00;;;;10450989;28;20213;-76
2021/07/12 07:08:10;;;;;;;2.97;2.15;;;;;24.70;100613.00;;;;10466070;28;20204;-76
2021/07/12 07:13:30;;;;;;;2.95;1.88;;;;;24.60;100604.00;;;;10451837;28;20204;-76
2021/07/12 07:18:35;;;;;;;4.72;2.30;;;;;24.40;100605.00;;;;10482226;28;20220;-76
2021/07/12 07:23:42;;;;;;;3.22;2.03;;;;;24.60;100591.00;;;;10451850;28;20253;-76
2021/07/12 07:28:43;;;;;;;2.95;1.80;;;;;24.90;100595.00;;;;10423784;28;20205;-76
2021/07/12 07:33:45;;;;;;;2.00;1.80;;;;;25.10;100582.00;;;;10423789;28;20217;-76
2021/07/12 07:38:47;;;;;;;4.93;1.77;;;;;25.40;100582.00;;;;10439467;28;20707;-76
2021/07/12 07:43:49;;;;;;;1.80;1.70;;;;;26.00;100591.00;;;;10463999;28;20221;-76
2021/07/12 07:48:51;;;;;;;2.60;1.90;;;;;26.70;100573.00;;;;10464167;28;20197;-76
2021/07/12 07:53:53;;;;;;;4.60;1.85;;;;;27.50;100567.00;;;;10416716;28;20285;-75
2021/07/12 07:58:54;;;;;;;1.70;1.60;;;;;27.40;100564.00;;;;10439382;28;20199;-76
2021/07/12 08:03:57;;;;;;;2.88;1.90;;;;;27.20;100567.00;;;;10439284;28;20673;-76
2021/07/12 08:08:58;;;;;;;2.47;1.98;;;;;26.80;100572.00;;;;10439395;28;20236;-76
2021/07/12 08:14:02;;;;;;;3.58;1.85;;;;;26.70;100554.00;;;;10406260;28;20233;-76
2021/07/12 08:19:04;;;;;;;4.22;2.00;;;;;26.90;100554.00;;;;10406500;28;20557;-76
2021/07/12 08:24:06;;;;;;;2.20;1.80;;;;;27.40;100536.00;;;;10455120;28;20221;-76
2021/07/12 08:29:08;;;;;;;2.20;1.60;;;;;28.20;100551.00;;;;10446327;28;20192;-76
2021/07/12 08:34:10;;;;;;;3.25;1.90;;;;;28.80;100538.00;;;;10446411;28;20599;-76
2021/07/12 08:39:12;;;;;;;2.42;1.67;;;;;29.30;100538.00;;;;10462821;28;20198;-76
2021/07/12 08:44:14;;;;;;;1.83;1.50;;;;;29.70;100538.00;;;;10446396;28;20225;-76
2021/07/12 08:49:16;;;;;;;2.72;1.80;;;;;30.10;100525.00;;;;10468348;28;20189;-76
2021/07/12 08:54:19;;;;;;;2.72;1.70;;;;;30.10;100517.00;;;;10459734;28;20225;-76
2021/07/12 08:59:35;;;;;;;3.67;2.08;;;;;30.50;100530.00;;;;10492540;28;20545;-76
2021/07/12 09:04:51;;;;;;;2.38;1.80;;;;;30.50;100526.00;;;;10510769;28;20220;-76
2021/07/12 09:10:09;;;;;;;2.25;1.70;;;;;30.70;100518.00;;;;10459834;28;20644;-76
2021/07/12 09:15:17;;;;;;;2.60;1.73;;;;;30.50;100517.00;;;;10492794;28;20181;-75
2021/07/12 09:20:37;;;;;;;2.67;1.90;;;;;30.00;100511.00;;;;10475839;28;20193;-76
2021/07/12 09:25:39;;;;;;;2.22;1.77;;;;;29.40;100515.00;;;;10480720;28;20214;-76
2021/07/12 09:30:40;;;;;;;2.30;1.90;;;;;29.10;100511.00;;;;10434649;28;20233;-76
2021/07/12 09:35:42;;;;;;;2.67;1.85;;;;;29.10;100502.00;;;;10402272;28;20214;-76
2021/07/12 09:40:44;;;;;;;4.07;1.98;;;;;28.90;100498.00;;;;10487997;28;20239;-76
2021/07/12 09:45:47;;;;;;;2.75;1.42;;;;;28.50;100503.00;;;;10514966;28;20209;-76
2021/07/12 09:50:49;;;;;;;1.77;1.60;;;;;27.70;100495.00;;;;10475652;28;20194;-76
2021/07/12 09:55:53;;;;;;;1.58;1.48;;;;;27.10;100498.00;;;;10481412;28;20197;-76
2021/07/12 10:00:54;;;;;;;2.25;1.80;;;;;26.60;100498.00;;;;10488030;28;20201;-76
2021/07/12 10:05:56;;;;;;;3.03;1.70;;;;;26.40;100506.00;;;;10468127;28;20330;-76
2021/07/12 10:10:58;;;;;;;2.88;1.98;;;;;26.30;100514.00;;;;10485001;28;20707;-76
2021/07/12 10:16:02;;;;;;;2.97;1.52;;;;;26.30;100513.00;;;;10484676;28;20227;-76
2021/07/12 10:21:05;;;;;;;1.70;1.60;;;;;26.80;100510.00;;;;10468234;28;20196;-76
2021/07/12 10:26:07;;;;;;;3.22;1.55;;;;;27.60;100505.00;;;;10484403;28;20224;-76
2021/07/12 10:31:18;;;;;;;1.95;1.70;;;;;28.30;100506.00;;;;10484200;28;20197;-76
2021/07/12 10:36:40;;;;;;;3.72;1.92;;;;;28.60;100508.00;;;;10467389;28;20217;-76
2021/07/12 10:41:49;;;;;;;2.63;1.90;;;;;28.90;100499.00;;;;10483656;28;20753;-76
2021/07/12 10:46:52;;;;;;;3.38;1.60;;;;;28.60;100500.00;;;;10467168;28;20284;-76
2021/07/12 10:51:54;;;;;;;2.30;1.85;;;;;27.80;100501.00;;;;10483650;28;20194;-76
2021/07/12 10:56:58;;;;;;;2.22;2.03;;;;;27.30;100503.00;;;;10481572;28;20194;-76
2021/07/12 11:02:30;;;;;;;2.22;1.88;;;;;27.20;100507.00;;;;10465886;28;20185;-76
2021/07/12 11:07:45;;;;;;;2.13;1.52;;;;;27.50;100495.00;;;;10482948;28;20645;-76
2021/07/12 11:12:55;;;;;;;2.63;1.60;;;;;27.50;100481.00;;;;10464865;28;20195;-76
2021/07/12 11:18:01;;;;;;;2.67;1.90;;;;;27.20;100478.00;;;;10433093;28;20258;-76
2021/07/12 11:23:04;;;;;;;3.67;2.10;;;;;26.90;100470.00;;;;10473151;28;20241;-75
2021/07/12 11:28:16;;;;;;;3.30;2.55;;;;;27.20;100466.00;;;;10490152;28;20196;-76
2021/07/12 11:33:29;;;;;;;4.63;1.98;;;;;27.50;100466.00;;;;10490196;28;20258;-76
2021/07/12 11:38:31;;;;;;;3.05;2.20;;;;;27.20;100459.00;;;;10490351;28;20204;-76
2021/07/12 11:43:32;;;;;;;2.75;2.05;;;;;26.90;100447.00;;;;10522985;28;20239;-76
2021/07/12 11:48:34;;;;;;;2.60;1.98;;;;;26.70;100444.00;;;;10506366;28;20204;-76
2021/07/12 11:53:36;;;;;;;1.83;1.73;;;;;26.60;100452.00;;;;10506098;28;20201;-76
2021/07/12 11:58:38;;;;;;;4.70;2.35;;;;;26.50;100454.00;;;;10489781;28;20184;-76
2021/07/12 12:03:40;;;;;;;3.15;1.80;;;;;26.60;100457.00;;;;10505537;28;20216;-76
2021/07/12 12:08:42;;;;;;;4.55;2.42;;;;;26.80;100466.00;;;;10540166;28;20648;-76
2021/07/12 12:13:44;;;;;;;5.68;2.17;;;;;26.10;100476.00;;;;10505227;28;20196;-76
2021/07/12 12:18:45;;;;;;;3.80;2.00;;;;;26.10;100472.00;;;;10472076;28;20602;-76
2021/07/12 12:23:47;;;;;;;5.10;2.38;;;;;26.50;100470.00;;;;10495954;28;20286;-77
2021/07/12 12:28:55;;;;;;;3.08;2.03;;;;;26.70;100468.00;;;;10498072;28;20598;-76
2021/07/12 12:34:01;;;;;;;3.00;2.13;;;;;25.90;100451.00;;;;10463434;28;20209;-76
2021/07/12 12:39:07;;;;;;;2.53;2.05;;;;;25.70;100456.00;;;;10463272;28;20243;-76
2021/07/12 12:44:11;;;;;;;3.28;2.65;;;;;26.20;100457.00;;;;10496068;28;20256;-76
2021/07/12 12:49:21;;;;;;;3.08;2.30;;;;;26.20;100454.00;;;;10479649;28;20177;-76
2021/07/12 12:54:35;;;;;;;3.78;2.10;;;;;26.20;100452.00;;;;10495827;28;20238;-76
2021/07/12 12:59:45;;;;;;;4.30;2.83;;;;;25.60;100462.00;;;;10446382;28;20240;-76
2021/07/12 13:04:55;;;;;;;2.47;1.92;;;;;25.10;100460.00;;;;10446354;28;20260;-76
2021/07/12 13:10:09;;;;;;;2.75;1.63;;;;;24.50;100461.00;;;;10445754;28;20201;-76
2021/07/12 13:15:13;;;;;;;3.95;1.70;;;;;24.00;100459.00;;;;10462299;28;20243;-76
2021/07/12 13:20:20;;;;;;;2.00;1.80;;;;;23.50;100462.00;;;;10462038;28;20200;-76
2021/07/12 13:25:37;;;;;;;2.17;1.42;;;;;23.20;100474.00;;;;10462123;28;20278;-76
2021/07/12 13:30:46;;;;;;;1.92;1.58;;;;;23.00;100457.00;;;;10461898;28;20189;-75
2021/07/12 13:35:48;;;;;;;2.08;1.60;;;;;23.00;100467.00;;;;10490720;28;20908;-76
2021/07/12 13:40:51;;;;;;;1.50;1.40;;;;;23.10;100461.00;;;;10453130;28;20216;-76
2021/07/12 13:45:52;;;;;;;2.47;1.77;;;;;23.30;100456.00;;;;10485733;28;20218;-76
2021/07/12 13:50:54;;;;;;;4.93;1.70;;;;;23.30;100459.00;;;;10485957;28;20182;-76
2021/07/12 13:55:56;;;;;;;3.85;2.03;;;;;23.10;100465.00;;;;10461026;28;20201;-76
2021/07/12 14:00:58;;;;;;;4.15;2.15;;;;;22.90;100465.00;;;;10468674;28;20548;-76
2021/07/12 14:06:00;;;;;;;2.08;1.67;;;;;22.70;100467.00;;;;10502931;28;20217;-76
2021/07/12 14:11:02;;;;;;;3.20;1.60;;;;;22.20;100487.00;;;;10467860;28;20202;-76
2021/07/12 14:16:05;;;;;;;2.30;2.10;;;;;21.90;100488.00;;;;10468149;28;20193;-75
2021/07/12 14:21:14;;;;;;;3.65;1.90;;;;;21.90;100472.00;;;;10460974;28;20220;-76
2021/07/12 14:26:20;;;;;;;2.25;1.90;;;;;22.40;100460.00;;;;10453040;28;20592;-76
2021/07/12 14:31:22;;;;;;;2.53;2.00;;;;;23.50;100440.00;;;;10483840;28;20288;-76
2021/07/12 14:36:24;;;;;;;3.08;2.00;;;;;25.90;100455.00;;;;10483563;28;20209;-76
2021/07/12 14:41:27;;;;;;;6.13;2.10;;;;;27.00;100456.00;;;;10483689;28;20209;-76
2021/07/12 14:46:29;;;;;;;3.78;1.80;;;;;27.80;100449.00;;;;10483212;28;20282;-76
2021/07/12 14:51:32;;;;;;;2.80;2.50;;;;;27.60;100446.00;;;;10500093;28;20292;-76
2021/07/12 14:56:34;;;;;;;3.50;2.05;;;;;28.00;100449.00;;;;10483481;28;20198;-76
2021/07/12 15:01:36;;;;;;;4.30;2.00;;;;;26.90;100448.00;;;;10505540;28;20193;-76
2021/07/12 15:06:38;;;;;;;4.28;2.83;;;;;26.30;100444.00;;;;10508038;28;20209;-76
2021/07/12 15:11:41;;;;;;;2.72;2.00;;;;;26.10;100449.00;;;;10488498;28;20610;-76
2021/07/12 15:16:43;;;;;;;4.97;4.57;;;;;25.90;100450.00;;;;10499969;28;20239;-76
2021/07/12 15:21:46;;;;;;;2.03;1.83;;;;;26.00;100450.00;;;;10465664;28;20787;-76
2021/07/12 15:26:48;;;;;;;2.55;2.30;;;;;26.50;100435.00;;;;10481969;28;20224;-76
2021/07/12 15:31:51;;;;;;;2.28;1.77;;;;;27.80;100432.00;;;;10465296;28;20300;-76
2021/07/12 15:36:54;;;;;;;1.90;1.80;;;;;27.70;100437.00;;;;10481982;28;20185;-76
2021/07/12 15:41:59;;;;;;;3.88;1.58;;;;;27.60;100442.00;;;;10481396;28;20679;-76
2021/07/12 15:47:02;;;;;;;4.57;1.52;;;;;28.20;100434.00;;;;10464925;28;20263;-76
2021/07/12 15:52:05;;;;;;;3.63;1.70;;;;;29.50;100426.00;;;;10481330;28;20204;-76
2021/07/12 15:57:07;;;;;;;1.70;1.60;;;;;29.80;100428.00;;;;10480665;28;20210;-77
2021/07/12 16:02:10;;;;;;;2.05;1.80;;;;;29.00;100417.00;;;;10472998;28;20204;-76
2021/07/12 16:07:12;;;;;;;3.90;1.60;;;;;27.60;100426.00;;;;10504935;28;20557;-76
2021/07/12 16:12:14;;;;;;;1.90;1.52;;;;;26.70;100428.00;;;;10540153;28;20537;-76
2021/07/12 16:17:16;;;;;;;2.03;1.50;;;;;26.80;100427.00;;;;10522017;28;20184;-76
2021/07/12 16:22:17;;;;;;;3.42;1.40;;;;;26.90;100424.00;;;;10503741;28;20192;-76
2021/07/12 16:27:19;;;;;;;2.85;1.60;;;;;26.90;100422.00;;;;10463357;28;20965;-76
2021/07/12 16:32:21;;;;;;;2.70;1.50;;;;;26.00;100429.00;;;;10463102;28;20607;-76
2021/07/12 16:37:23;;;;;;;2.10;1.73;;;;;24.90;100422.00;;;;10463165;28;20194;-76
2021/07/12 16:42:26;;;;;;;1.67;1.58;;;;;24.30;100425.00;;;;10487896;28;20250;-76
2021/07/12 16:47:28;;;;;;;2.03;1.42;;;;;23.80;100424.00;;;;10538379;28;20212;-76
2021/07/12 16:52:30;;;;;;;1.95;1.70;;;;;23.40;100425.00;;;;10499869;28;20189;-76
2021/07/12 16:57:33;;;;;;;2.63;1.58;;;;;23.20;100433.00;;;;10487654;28;20196;-76
2021/07/12 17:02:35;;;;;;;2.85;1.45;;;;;23.00;100432.00;;;;10521121;28;20196;-76
2021/07/12 17:07:38;;;;;;;3.33;1.65;;;;;22.80;100427.00;;;;10487613;28;20220;-76
2021/07/12 17:12:40;;;;;;;2.13;1.75;;;;;22.70;100439.00;;;;10528524;28;20196;-76
2021/07/12 17:17:42;;;;;;;4.97;1.65;;;;;22.60;100440.00;;;;10498984;28;20205;-76
2021/07/12 17:22:46;;;;;;;2.60;2.00;;;;;22.40;100439.00;;;;10475743;28;20197;-76
2021/07/12 17:27:48;;;;;;;2.42;1.92;;;;;22.30;100446.00;;;;10528838;28;20188;-76
2021/07/12 17:32:50;;;;;;;2.05;1.85;;;;;22.20;100443.00;;;;10528432;28;20212;-76
2021/07/12 17:37:52;;;;;;;2.58;1.83;;;;;22.10;100440.00;;;;10511449;28;20196;-76
2021/07/12 17:42:54;;;;;;;2.72;1.77;;;;;22.00;100451.00;;;;10527395;28;21137;-76
2021/07/12 17:47:56;;;;;;;3.25;1.80;;;;;21.90;100444.00;;;;10527726;28;20311;-75
2021/07/12 17:52:58;;;;;;;2.35;1.75;;;;;21.70;100444.00;;;;10520511;28;20236;-76
2021/07/12 17:58:00;;;;;;;3.03;1.65;;;;;21.60;100436.00;;;;10495245;28;20200;-76
2021/07/12 18:03:03;;;;;;;3.63;1.60;;;;;21.50;100441.00;;;;10494378;28;20197;-76
2021/07/12 18:08:06;;;;;;;2.10;1.88;;;;;21.40;100439.00;;;;10527199;28;20196;-76
2021/07/12 18:13:08;;;;;;;3.10;2.05;;;;;21.30;100445.00;;;;10510434;28;20246;-76
2021/07/12 18:18:11;;;;;;;1.95;1.60;;;;;21.20;100445.00;;;;10526907;28;20189;-76
2021/07/12 18:23:13;;;;;;;3.20;1.73;;;;;21.20;100442.00;;;;10525416;28;20266;-76
2021/07/12 18:28:16;;;;;;;2.22;1.67;;;;;21.10;100454.00;;;;10509585;28;20193;-76
2021/07/12 18:33:19;;;;;;;2.88;2.13;;;;;21.00;100453.00;;;;10525718;28;20262;-76
2021/07/12 18:38:21;;;;;;;2.47;1.88;;;;;20.90;100458.00;;;;10509518;28;20196;-76
2021/07/12 18:43:22;;;;;;;3.80;2.22;;;;;20.80;100457.00;;;;10509258;28;20534;-75
2021/07/12 18:48:24;;;;;;;3.38;2.30;;;;;20.60;100459.00;;;;10525517;28;20189;-76
2021/07/12 18:53:26;;;;;;;2.28;2.08;;;;;20.60;100459.00;;;;10507669;28;20648;-76
2021/07/12 18:58:28;;;;;;;1.92;1.83;;;;;20.50;100455.00;;;;10525206;28;20181;-76
2021/07/12 19:03:30;;;;;;;3.30;1.80;;;;;20.30;100462.00;;;;10507692;28;20886;-76
2021/07/12 19:08:32;;;;;;;2.10;1.88;;;;;20.20;100448.00;;;;10507805;28;20189;-76
2021/07/12 19:13:34;;;;;;;1.98;1.55;;;;;20.10;100439.00;;;;10507661;28;20249;-76
2021/07/12 19:18:36;;;;;;;4.20;1.70;;;;;20.10;100443.00;;;;10490911;28;20197;-76
2021/07/12 19:23:38;;;;;;;3.40;2.05;;;;;20.00;100437.00;;;;10507833;28;20217;-76
2021/07/12 19:28:40;;;;;;;1.90;1.80;;;;;19.90;100441.00;;;;10507284;28;20204;-76
2021/07/12 19:33:43;;;;;;;3.08;2.63;;;;;19.80;100435.00;;;;10506031;28;20701;-76
2021/07/12 19:38:45;;;;;;;2.22;2.08;;;;;19.70;100439.00;;;;10523235;28;20238;-76
2021/07/12 19:43:49;;;;;;;2.00;1.90;;;;;19.70;100446.00;;;;10489781;28;20266;-76
2021/07/12 19:48:51;;;;;;;2.28;1.98;;;;;19.60;100446.00;;;;10506667;28;20234;-76
2021/07/12 19:53:52;;;;;;;3.20;2.17;;;;;19.50;100455.00;;;;10491281;28;20197;-76
2021/07/12 19:58:54;;;;;;;3.13;2.10;;;;;19.40;100453.00;;;;10447826;28;20198;-76
2021/07/12 20:03:56;;;;;;;2.50;2.30;;;;;19.30;100458.00;;;;10480584;28;20225;-76
2021/07/12 20:08:58;;;;;;;5.05;2.17;;;;;19.20;100455.00;;;;10480441;28;20235;-76
2021/07/12 20:14:01;;;;;;;3.40;2.17;;;;;19.00;100463.00;;;;10480541;28;20200;-76
2021/07/12 20:19:03;;;;;;;4.00;2.20;;;;;18.70;100467.00;;;;10496767;28;20534;-76
2021/07/12 20:24:05;;;;;;;2.17;1.98;;;;;18.50;100466.00;;;;10479488;28;20216;-76
2021/07/12 20:29:10;;;;;;;11.60;10.45;;;;;18.50;100479.00;;;;10521893;28;20196;-76
2021/07/12 20:34:12;;;;;;;5.80;3.40;;;;;18.60;100470.00;;;;10504726;28;20216;-76
2021/07/12 20:39:14;;;;;;;5.50;3.00;;;;;18.70;100471.00;;;;10520943;28;20660;-76
2021/07/12 20:44:16;;;;;;;2.80;2.50;;;;;18.70;100468.00;;;;10487623;28;20270;-76
2021/07/12 20:49:18;;;;;;;3.33;2.78;;;;;18.70;100468.00;;;;10521005;28;20214;-76
2021/07/12 20:54:19;;;;;;;5.18;2.70;;;;;18.70;100476.00;;;;10486272;28;20197;-76
2021/07/12 20:59:21;;;;;;;5.10;3.50;;;;;18.60;100480.00;;;;10479226;28;20186;-76
2021/07/12 21:04:26;;;;;;;5.90;3.88;;;;;18.50;100480.00;;;;10462351;28;20213;-76
2021/07/12 21:09:29;;;;;;;3.40;2.60;;;;;18.50;100475.00;;;;10479313;28;20197;-76
2021/07/12 21:14:31;;;;;;;3.15;2.88;;;;;18.40;100483.00;;;;10495693;28;20181;-76
2021/07/12 21:19:33;;;;;;;2.50;2.30;;;;;18.30;100491.00;;;;10461894;28;20679;-76
2021/07/12 21:24:35;;;;;;;2.70;2.50;;;;;18.10;100472.00;;;;10461955;28;20223;-76
2021/07/12 21:29:37;;;;;;;4.22;2.75;;;;;17.90;100475.00;;;;10462192;28;20247;-76
2021/07/12 21:34:40;;;;;;;7.07;3.42;;;;;17.80;100473.00;;;;10478631;28;20259;-76
2021/07/12 21:39:42;;;;;;;5.13;3.75;;;;;17.70;100469.00;;;;10478394;28;20193;-76
2021/07/12 21:44:43;;;;;;;5.03;4.15;;;;;17.60;100486.00;;;;10461706;28;20299;-75
2021/07/12 21:49:45;;;;;;;4.95;4.05;;;;;17.60;100494.00;;;;10531768;28;20185;-76
2021/07/12 21:54:47;;;;;;;5.95;4.50;;;;;17.50;100486.00;;;;10469843;28;20204;-75
2021/07/12 21:59:49;;;;;;;4.90;4.40;;;;;17.50;100466.00;;;;10486523;28;20339;-76
2021/07/12 22:04:51;;;;;;;5.05;4.55;;;;;17.50;100468.00;;;;10485364;28;20205;-76
2021/07/12 22:09:53;;;;;;;7.32;4.45;;;;;17.50;100472.00;;;;10485489;28;20247;-76
2021/07/12 22:14:55;;;;;;;5.53;4.70;;;;;17.50;100484.00;;;;10468402;28;20184;-76
2021/07/12 22:19:57;;;;;;;7.05;5.15;;;;;17.40;100487.00;;;;10468476;28;20947;-76
2021/07/12 22:25:01;;;;;;;7.38;6.00;;;;;17.40;100484.00;;;;10476812;28;20311;-76
2021/07/12 22:30:06;;;;;;;7.25;6.55;;;;;17.30;100494.00;;;;10526217;28;20728;-76
2021/07/12 22:35:10;;;;;;;8.68;7.70;;;;;17.30;100500.00;;;;10509684;28;20204;-76
2021/07/12 22:40:13;;;;;;;9.35;8.35;;;;;17.20;100492.00;;;;10526059;28;20743;-76
2021/07/12 22:45:16;;;;;;;11.52;7.88;;;;;17.20;100490.00;;;;10508887;28;20217;-76
2021/07/12 22:50:18;;;;;;;9.35;8.38;;;;;17.10;100501.00;;;;10525536;28;20280;-76
2021/07/12 22:55:20;;;;;;;9.15;8.18;;;;;17.00;100506.00;;;;10498599;28;20579;-76
2021/07/12 23:00:24;;;;;;;12.63;9.50;;;;;16.90;100498.00;;;;10466852;28;20190;-76
2021/07/12 23:05:27;;;;;;;13.32;11.00;;;;;16.90;100497.00;;;;10449802;28;20221;-76
2021/07/12 23:10:29;;;;;;;12.30;11.05;;;;;16.90;100499.00;;;;10466473;28;20197;-76
2021/07/12 23:15:32;;;;;;;12.93;10.82;;;;;16.90;100505.00;;;;10466351;28;20588;-76
2021/07/12 23:20:34;;;;;;;15.27;12.15;;;;;16.80;100510.00;;;;10482808;28;20185;-76
2021/07/12 23:25:36;;;;;;;15.63;12.77;;;;;16.70;100502.00;;;;10465443;28;20259;-76
2021/07/12 23:30:38;;;;;;;19.35;14.93;;;;;16.60;100488.00;;;;10482510;28;20193;-76
2021/07/12 23:35:40;;;;;;;23.23;14.63;;;;;16.60;100487.00;;;;10465266;28;20210;-76
2021/07/12 23:40:42;;;;;;;18.60;15.83;;;;;16.50;100476.00;;;;10465374;28;20201;-76
2021/07/12 23:45:44;;;;;;;21.30;17.30;;;;;16.50;100493.00;;;;10464613;28;20221;-76
2021/07/12 23:50:46;;;;;;;28.08;18.88;;;;;16.50;100479.00;;;;10481262;28;20660;-75
2021/07/12 23:55:48;;;;;;;24.80;20.13;;;;;16.60;100480.00;;;;10511636;28;20188;-76
